createdAt,value
2018-06-04T06:08:05.476Z,33.60
2018-06-04T06:10:33.777Z,35.13
2018-06-04T06:13:02.411Z,30.88
2018-06-04T06:15:31.024Z,31.70
2018-06-04T06:17:59.704Z,30.70
2018-06-04T06:20:28.148Z,29.87
2018-06-04T06:22:56.966Z,28.70
2018-06-04T06:25:25.796Z,30.62
2018-06-04T06:27:54.749Z,27.60
2018-06-04T06:30:23.342Z,27.40
2018-06-04T06:32:52.517Z,27.77
2018-06-04T06:35:20.783Z,29.52
2018-06-04T06:37:49.584Z,28.00
2018-06-04T06:40:17.881Z,30.08
2018-06-04T06:42:46.659Z,29.50
2018-06-04T06:45:15.546Z,26.65
2018-06-04T06:47:44.657Z,27.82
2018-06-04T06:50:13.660Z,29.15
2018-06-04T06:52:42.850Z,27.15
2018-06-04T06:55:12.044Z,28.27
2018-06-04T06:57:41.028Z,23.12
2018-06-04T07:00:10.524Z,25.62
2018-06-04T07:02:39.455Z,26.65
2018-06-04T07:05:08.049Z,26.35
2018-06-04T07:07:36.667Z,27.02
2018-06-04T07:10:05.309Z,26.60
2018-06-04T07:12:34.654Z,25.70
2018-06-04T07:15:03.527Z,24.15
2018-06-04T07:17:32.769Z,24.37
2018-06-04T07:20:01.446Z,25.60
2018-06-04T07:22:30.303Z,21.70
2018-06-04T07:24:58.940Z,24.45
2018-06-04T07:27:27.823Z,15.35
2018-06-04T07:29:56.616Z,17.30
2018-06-04T07:32:25.445Z,17.02
2018-06-04T07:34:55.032Z,14.47
2018-06-04T07:37:23.894Z,20.32
2018-06-04T07:39:51.991Z,14.45
2018-06-04T07:42:21.292Z,22.80
2018-06-04T07:44:50.698Z,12.88
2018-06-04T07:47:19.284Z,22.10
2018-06-04T07:49:48.787Z,21.90
2018-06-04T07:52:17.536Z,20.25
2018-06-04T07:54:46.157Z,21.07
2018-06-04T07:57:14.808Z,19.98
2018-06-04T07:59:44.147Z,14.90
2018-06-04T08:02:12.986Z,19.82
2018-06-04T08:04:42.623Z,17.48
2018-06-04T08:07:12.941Z,20.02
2018-06-04T08:09:43.224Z,19.07
2018-06-04T08:12:12.252Z,14.93
2018-06-04T08:14:40.998Z,18.10
2018-06-04T08:17:09.442Z,18.35
2018-06-04T08:19:37.626Z,18.12
2018-06-04T08:22:05.730Z,16.27
2018-06-04T08:24:34.285Z,13.80
2018-06-04T08:27:02.846Z,16.50
2018-06-04T08:29:32.958Z,17.17
2018-06-04T08:32:02.231Z,16.10
2018-06-04T08:36:57.606Z,16.27
2018-06-04T08:39:27.380Z,15.35
2018-06-04T08:41:55.984Z,15.13
2018-06-04T08:44:25.525Z,14.70
2018-06-04T08:46:54.295Z,15.03
2018-06-04T08:49:22.817Z,13.90
2018-06-04T08:51:51.540Z,14.60
2018-06-04T08:54:21.049Z,14.13
2018-06-04T08:56:50.537Z,13.28
2018-06-04T08:59:19.156Z,14.25
2018-06-04T09:01:48.041Z,13.22
2018-06-04T09:04:16.933Z,13.40
2018-06-04T09:06:46.443Z,12.78
2018-06-04T09:09:14.771Z,11.50
2018-06-04T09:11:43.477Z,11.93
2018-06-04T09:14:12.413Z,11.60
2018-06-04T09:16:41.550Z,12.68
2018-06-04T09:19:10.227Z,10.50
2018-06-04T09:21:38.867Z,8.83
2018-06-04T09:24:08.296Z,11.95
2018-06-04T09:26:37.975Z,11.03
2018-06-04T09:29:06.593Z,11.08
2018-06-04T09:31:34.990Z,10.58
2018-06-04T09:34:03.650Z,10.18
2018-06-04T09:36:32.493Z,10.43
2018-06-04T09:39:02.292Z,10.23
2018-06-04T09:41:31.028Z,9.88
2018-06-04T09:44:00.399Z,10.03
2018-06-04T09:46:29.479Z,9.15
2018-06-04T09:48:59.505Z,9.00
2018-06-04T09:51:28.936Z,9.45
2018-06-04T09:53:58.359Z,7.85
2018-06-04T09:56:28.682Z,8.65
2018-06-04T09:58:57.320Z,8.03
2018-06-04T10:01:26.018Z,8.55
2018-06-04T10:03:54.883Z,6.95
2018-06-04T10:06:23.594Z,8.28
2018-06-04T10:08:52.545Z,8.15
2018-06-04T10:11:21.755Z,8.00
2018-06-04T10:13:50.660Z,7.72
2018-06-04T10:16:19.573Z,8.08
2018-06-04T10:18:48.261Z,7.03
2018-06-04T10:21:16.807Z,7.57
2018-06-04T10:23:45.264Z,7.95
2018-06-04T10:26:13.721Z,7.90
2018-06-04T10:28:42.221Z,7.37
2018-06-04T10:31:10.664Z,7.30
2018-06-04T10:33:39.204Z,6.90
2018-06-04T10:36:07.638Z,6.85
2018-06-04T10:38:36.145Z,6.97
2018-06-04T10:41:04.745Z,6.90
2018-06-04T10:43:33.414Z,6.60
2018-06-04T10:46:02.355Z,6.30
2018-06-04T10:48:30.687Z,6.67
2018-06-04T10:51:00.265Z,6.83
2018-06-04T10:53:28.794Z,6.28
2018-06-04T10:55:57.740Z,5.70
2018-06-04T10:58:26.561Z,6.30
2018-06-04T11:00:55.463Z,6.55
2018-06-04T11:03:23.848Z,6.20
2018-06-04T11:05:52.521Z,6.17
2018-06-04T11:08:21.034Z,6.33
2018-06-04T11:10:50.140Z,6.00
2018-06-04T11:13:19.048Z,5.80
2018-06-04T11:15:47.802Z,6.10
2018-06-04T11:18:16.554Z,6.33
2018-06-04T11:20:45.608Z,6.45
2018-06-04T11:23:14.286Z,6.03
2018-06-04T11:25:43.268Z,5.90
2018-06-04T11:28:11.940Z,6.15
2018-06-04T11:30:40.840Z,6.10
2018-06-04T11:33:09.390Z,6.30
2018-06-04T11:35:37.984Z,5.80
2018-06-04T11:38:06.645Z,5.92
2018-06-04T11:40:35.522Z,5.67
2018-06-04T11:43:04.369Z,5.53
2018-06-04T11:45:32.929Z,5.33
2018-06-04T11:48:01.661Z,5.55
2018-06-04T11:50:30.451Z,5.50
2018-06-04T11:52:59.052Z,5.50
2018-06-04T11:55:27.653Z,5.40
2018-06-04T11:57:55.671Z,5.78
2018-06-04T12:00:24.215Z,5.33
2018-06-04T12:02:52.816Z,5.47
2018-06-04T12:05:21.646Z,5.50
2018-06-04T12:07:50.379Z,5.42
2018-06-04T12:10:18.704Z,5.55
2018-06-04T12:12:47.425Z,5.50
2018-06-04T12:15:15.529Z,5.60
2018-06-04T12:17:43.807Z,5.50
2018-06-04T12:20:12.572Z,5.78
2018-06-04T12:22:41.265Z,5.70
2018-06-04T12:25:09.592Z,5.78
2018-06-04T12:27:37.568Z,5.67
2018-06-04T12:30:05.857Z,5.60
2018-06-04T12:32:34.566Z,5.65
2018-06-04T12:35:02.873Z,5.42
2018-06-04T12:37:31.307Z,5.40
2018-06-04T12:39:59.709Z,5.10
2018-06-04T12:42:28.535Z,5.30
2018-06-04T12:44:56.825Z,5.17
2018-06-04T12:47:25.498Z,4.97
2018-06-04T12:49:54.274Z,4.78
2018-06-04T12:52:22.777Z,5.40
2018-06-04T12:54:51.438Z,4.70
2018-06-04T12:57:19.851Z,4.78
2018-06-04T12:59:48.427Z,5.00
2018-06-04T13:02:16.713Z,5.00
2018-06-04T13:04:45.684Z,5.17
2018-06-04T13:07:15.403Z,4.53
2018-06-04T13:09:43.800Z,5.08
2018-06-04T13:12:12.489Z,4.67
2018-06-04T13:14:40.963Z,4.35
2018-06-04T13:17:09.956Z,4.65
2018-06-04T13:19:38.754Z,4.47
2018-06-04T13:22:07.510Z,4.60
2018-06-04T13:24:35.821Z,4.35
2018-06-04T13:27:04.314Z,4.50
2018-06-04T13:29:32.605Z,4.60
2018-06-04T13:32:01.253Z,4.53
2018-06-04T13:34:29.735Z,4.65
2018-06-04T13:36:58.271Z,4.12
2018-06-04T13:39:27.014Z,4.40
2018-06-04T13:41:55.998Z,4.50
2018-06-04T13:44:25.147Z,4.08
2018-06-04T13:46:53.613Z,4.30
2018-06-04T13:49:22.465Z,4.47
2018-06-04T13:51:50.838Z,4.30
2018-06-04T13:54:19.522Z,4.40
2018-06-04T13:56:47.907Z,4.30
2018-06-04T13:59:16.303Z,4.65
